sensor_id;sensor_type;location;lat;lon;timestamp;P1;durP1;ratioP1;P2;durP2;ratioP2
74867;SDS011;63419;42.262;12.210;2023-04-06T00:00:40;12.20;;;6.55;;
74867;SDS011;63419;42.262;12.210;2023-04-06T00:03:27;7.40;;;2.45;;
74867;SDS011;63419;42.262;12.210;2023-04-06T00:05:55;8.50;;;2.20;;
74867;SDS011;63419;42.262;12.210;2023-04-06T00:08:22;5.45;;;1.83;;
74867;SDS011;63419;42.262;12.210;2023-04-06T00:10:50;9.93;;;4.22;;
74867;SDS011;63419;42.262;12.210;2023-04-06T00:13:23;13.23;;;8.18;;
74867;SDS011;63419;42.262;12.210;2023-04-06T00:15:58;10.75;;;5.03;;
74867;SDS011;63419;42.262;12.210;2023-04-06T00:18:27;18.92;;;6.15;;
74867;SDS011;63419;42.262;12.210;2023-04-06T00:20:58;7.05;;;2.03;;
74867;SDS011;63419;42.262;12.210;2023-04-06T00:23:27;9.43;;;3.85;;
74867;SDS011;63419;42.262;12.210;2023-04-06T00:25:58;7.63;;;2.88;;
74867;SDS011;63419;42.262;12.210;2023-04-06T00:28:25;10.43;;;3.38;;
74867;SDS011;63419;42.262;12.210;2023-04-06T00:30:58;13.90;;;4.82;;
74867;SDS011;63419;42.262;12.210;2023-04-06T00:33:29;11.40;;;3.97;;
74867;SDS011;63419;42.262;12.210;2023-04-06T00:35:57;12.30;;;3.88;;
74867;SDS011;63419;42.262;12.210;2023-04-06T00:38:28;18.48;;;5.25;;
74867;SDS011;63419;42.262;12.210;2023-04-06T00:40:58;13.52;;;4.47;;
74867;SDS011;63419;42.262;12.210;2023-04-06T00:43:32;10.75;;;4.60;;
74867;SDS011;63419;42.262;12.210;2023-04-06T00:46:01;14.07;;;4.93;;
74867;SDS011;63419;42.262;12.210;2023-04-06T00:48:36;20.83;;;8.68;;
74867;SDS011;63419;42.262;12.210;2023-04-06T00:51:04;16.50;;;4.63;;
74867;SDS011;63419;42.262;12.210;2023-04-06T00:53:31;14.55;;;4.82;;
74867;SDS011;63419;42.262;12.210;2023-04-06T00:55:59;12.52;;;3.67;;
74867;SDS011;63419;42.262;12.210;2023-04-06T00:58:37;10.10;;;3.00;;
74867;SDS011;63419;42.262;12.210;2023-04-06T01:01:06;7.05;;;3.10;;
74867;SDS011;63419;42.262;12.210;2023-04-06T01:03:50;10.68;;;3.45;;
74867;SDS011;63419;42.262;12.210;2023-04-06T01:06:19;11.38;;;4.15;;
74867;SDS011;63419;42.262;12.210;2023-04-06T01:08:46;11.45;;;1.92;;
74867;SDS011;63419;42.262;12.210;2023-04-06T01:11:23;12.18;;;4.30;;
74867;SDS011;63419;42.262;12.210;2023-04-06T01:13:55;14.57;;;4.47;;
74867;SDS011;63419;42.262;12.210;2023-04-06T01:16:28;12.05;;;4.70;;
74867;SDS011;63419;42.262;12.210;2023-04-06T01:18:56;13.25;;;4.88;;
74867;SDS011;63419;42.262;12.210;2023-04-06T01:21:26;11.23;;;4.18;;
74867;SDS011;63419;42.262;12.210;2023-04-06T01:23:57;13.30;;;4.43;;
74867;SDS011;63419;42.262;12.210;2023-04-06T01:26:24;11.13;;;4.35;;
74867;SDS011;63419;42.262;12.210;2023-04-06T01:29:00;6.53;;;2.97;;
74867;SDS011;63419;42.262;12.210;2023-04-06T01:31:30;8.40;;;2.50;;
74867;SDS011;63419;42.262;12.210;2023-04-06T01:34:03;7.05;;;2.45;;
74867;SDS011;63419;42.262;12.210;2023-04-06T01:36:35;6.60;;;2.38;;
74867;SDS011;63419;42.262;12.210;2023-04-06T01:39:09;12.18;;;2.97;;
74867;SDS011;63419;42.262;12.210;2023-04-06T01:41:37;5.85;;;2.13;;
74867;SDS011;63419;42.262;12.210;2023-04-06T01:44:07;8.23;;;2.17;;
74867;SDS011;63419;42.262;12.210;2023-04-06T01:46:43;4.18;;;1.88;;
74867;SDS011;63419;42.262;12.210;2023-04-06T01:49:10;9.02;;;3.40;;
74867;SDS011;63419;42.262;12.210;2023-04-06T01:54:08;11.05;;;2.92;;
74867;SDS011;63419;42.262;12.210;2023-04-06T01:56:40;3.58;;;1.38;;
74867;SDS011;63419;42.262;12.210;2023-04-06T01:59:09;7.47;;;2.65;;
74867;SDS011;63419;42.262;12.210;2023-04-06T02:04:24;4.25;;;1.50;;
74867;SDS011;63419;42.262;12.210;2023-04-06T02:06:54;6.25;;;1.92;;
74867;SDS011;63419;42.262;12.210;2023-04-06T02:09:29;8.27;;;2.72;;
74867;SDS011;63419;42.262;12.210;2023-04-06T02:11:56;6.85;;;1.77;;
74867;SDS011;63419;42.262;12.210;2023-04-06T02:14:26;6.90;;;2.15;;
74867;SDS011;63419;42.262;12.210;2023-04-06T02:16:55;4.88;;;1.77;;
74867;SDS011;63419;42.262;12.210;2023-04-06T02:19:41;4.07;;;1.45;;
74867;SDS011;63419;42.262;12.210;2023-04-06T02:22:13;6.10;;;2.25;;
74867;SDS011;63419;42.262;12.210;2023-04-06T02:24:44;8.48;;;2.63;;
74867;SDS011;63419;42.262;12.210;2023-04-06T02:27:15;8.27;;;1.75;;
74867;SDS011;63419;42.262;12.210;2023-04-06T02:29:45;6.68;;;2.33;;
74867;SDS011;63419;42.262;12.210;2023-04-06T02:32:15;7.38;;;2.38;;
74867;SDS011;63419;42.262;12.210;2023-04-06T02:34:46;7.25;;;2.72;;
74867;SDS011;63419;42.262;12.210;2023-04-06T02:37:13;5.25;;;1.90;;
74867;SDS011;63419;42.262;12.210;2023-04-06T02:39:43;5.72;;;2.13;;
74867;SDS011;63419;42.262;12.210;2023-04-06T02:42:13;7.05;;;2.10;;
74867;SDS011;63419;42.262;12.210;2023-04-06T02:44:44;7.35;;;2.25;;
74867;SDS011;63419;42.262;12.210;2023-04-06T02:47:15;6.15;;;2.08;;
74867;SDS011;63419;42.262;12.210;2023-04-06T02:49:46;6.35;;;1.98;;
74867;SDS011;63419;42.262;12.210;2023-04-06T02:52:14;6.88;;;2.25;;
74867;SDS011;63419;42.262;12.210;2023-04-06T02:54:42;4.60;;;1.70;;
74867;SDS011;63419;42.262;12.210;2023-04-06T02:57:10;5.80;;;1.98;;
74867;SDS011;63419;42.262;12.210;2023-04-06T02:59:38;5.78;;;1.88;;
74867;SDS011;63419;42.262;12.210;2023-04-06T03:02:22;6.97;;;2.40;;
74867;SDS011;63419;42.262;12.210;2023-04-06T03:04:49;6.90;;;1.95;;
74867;SDS011;63419;42.262;12.210;2023-04-06T03:07:20;7.57;;;2.63;;
74867;SDS011;63419;42.262;12.210;2023-04-06T03:09:48;6.95;;;2.88;;
74867;SDS011;63419;42.262;12.210;2023-04-06T03:12:20;7.80;;;3.88;;
74867;SDS011;63419;42.262;12.210;2023-04-06T03:14:49;10.52;;;2.30;;
74867;SDS011;63419;42.262;12.210;2023-04-06T03:17:18;9.40;;;2.22;;
74867;SDS011;63419;42.262;12.210;2023-04-06T03:19:47;6.40;;;1.92;;
74867;SDS011;63419;42.262;12.210;2023-04-06T03:22:17;5.70;;;1.92;;
74867;SDS011;63419;42.262;12.210;2023-04-06T03:25:05;7.00;;;2.22;;
74867;SDS011;63419;42.262;12.210;2023-04-06T03:27:33;7.05;;;2.03;;
74867;SDS011;63419;42.262;12.210;2023-04-06T03:30:05;5.28;;;1.90;;
74867;SDS011;63419;42.262;12.210;2023-04-06T03:32:35;5.53;;;1.80;;
74867;SDS011;63419;42.262;12.210;2023-04-06T03:35:03;5.47;;;1.75;;
74867;SDS011;63419;42.262;12.210;2023-04-06T03:37:32;7.40;;;1.83;;
74867;SDS011;63419;42.262;12.210;2023-04-06T03:39:59;5.38;;;1.98;;
74867;SDS011;63419;42.262;12.210;2023-04-06T03:42:27;5.95;;;2.50;;
74867;SDS011;63419;42.262;12.210;2023-04-06T03:44:59;4.55;;;1.30;;
74867;SDS011;63419;42.262;12.210;2023-04-06T03:47:31;5.75;;;1.73;;
74867;SDS011;63419;42.262;12.210;2023-04-06T03:50:00;5.60;;;1.90;;
74867;SDS011;63419;42.262;12.210;2023-04-06T03:52:29;9.98;;;1.92;;
74867;SDS011;63419;42.262;12.210;2023-04-06T03:55:07;6.22;;;1.95;;
74867;SDS011;63419;42.262;12.210;2023-04-06T03:57:38;6.45;;;2.05;;
74867;SDS011;63419;42.262;12.210;2023-04-06T04:00:06;4.88;;;1.42;;
74867;SDS011;63419;42.262;12.210;2023-04-06T04:02:46;5.20;;;1.77;;
74867;SDS011;63419;42.262;12.210;2023-04-06T04:05:22;4.07;;;1.38;;
74867;SDS011;63419;42.262;12.210;2023-04-06T04:07:54;4.85;;;1.40;;
74867;SDS011;63419;42.262;12.210;2023-04-06T04:10:25;4.75;;;1.30;;
74867;SDS011;63419;42.262;12.210;2023-04-06T04:12:54;3.92;;;1.20;;
74867;SDS011;63419;42.262;12.210;2023-04-06T04:17:55;6.40;;;1.40;;
74867;SDS011;63419;42.262;12.210;2023-04-06T04:20:28;5.75;;;1.20;;
74867;SDS011;63419;42.262;12.210;2023-04-06T04:23:02;5.63;;;1.10;;
74867;SDS011;63419;42.262;12.210;2023-04-06T04:25:32;3.00;;;0.73;;
74867;SDS011;63419;42.262;12.210;2023-04-06T04:27:59;4.57;;;1.35;;
74867;SDS011;63419;42.262;12.210;2023-04-06T04:30:26;4.43;;;1.17;;
74867;SDS011;63419;42.262;12.210;2023-04-06T04:32:59;3.88;;;0.90;;
74867;SDS011;63419;42.262;12.210;2023-04-06T04:35:27;9.82;;;2.20;;
74867;SDS011;63419;42.262;12.210;2023-04-06T04:38:00;3.47;;;0.93;;
74867;SDS011;63419;42.262;12.210;2023-04-06T04:42:55;4.78;;;1.40;;
74867;SDS011;63419;42.262;12.210;2023-04-06T04:45:25;6.30;;;1.20;;
74867;SDS011;63419;42.262;12.210;2023-04-06T04:47:52;5.82;;;1.55;;
74867;SDS011;63419;42.262;12.210;2023-04-06T04:50:24;4.50;;;1.08;;
74867;SDS011;63419;42.262;12.210;2023-04-06T04:52:58;3.72;;;1.17;;
74867;SDS011;63419;42.262;12.210;2023-04-06T04:55:25;3.65;;;0.90;;
74867;SDS011;63419;42.262;12.210;2023-04-06T04:57:57;9.35;;;1.88;;
74867;SDS011;63419;42.262;12.210;2023-04-06T05:00:25;7.03;;;1.27;;
74867;SDS011;63419;42.262;12.210;2023-04-06T05:02:53;4.75;;;1.17;;
74867;SDS011;63419;42.262;12.210;2023-04-06T05:05:28;3.63;;;0.93;;
74867;SDS011;63419;42.262;12.210;2023-04-06T05:08:01;5.30;;;1.27;;
74867;SDS011;63419;42.262;12.210;2023-04-06T05:10:31;4.63;;;1.08;;
74867;SDS011;63419;42.262;12.210;2023-04-06T05:13:04;6.38;;;1.58;;
74867;SDS011;63419;42.262;12.210;2023-04-06T05:15:37;5.75;;;1.60;;
74867;SDS011;63419;42.262;12.210;2023-04-06T05:18:10;7.03;;;1.80;;
74867;SDS011;63419;42.262;12.210;2023-04-06T05:20:43;4.45;;;1.48;;
74867;SDS011;63419;42.262;12.210;2023-04-06T05:23:13;7.90;;;2.05;;
74867;SDS011;63419;42.262;12.210;2023-04-06T05:25:42;8.50;;;1.55;;
74867;SDS011;63419;42.262;12.210;2023-04-06T05:28:10;4.20;;;1.35;;
74867;SDS011;63419;42.262;12.210;2023-04-06T05:30:44;5.30;;;1.40;;
74867;SDS011;63419;42.262;12.210;2023-04-06T05:33:19;4.97;;;1.35;;
74867;SDS011;63419;42.262;12.210;2023-04-06T05:35:47;9.13;;;1.58;;
74867;SDS011;63419;42.262;12.210;2023-04-06T05:38:18;6.55;;;1.80;;
74867;SDS011;63419;42.262;12.210;2023-04-06T05:40:52;4.40;;;1.42;;
74867;SDS011;63419;42.262;12.210;2023-04-06T05:43:30;5.75;;;1.90;;
74867;SDS011;63419;42.262;12.210;2023-04-06T05:45:59;5.47;;;1.60;;
74867;SDS011;63419;42.262;12.210;2023-04-06T05:48:26;6.97;;;1.83;;
74867;SDS011;63419;42.262;12.210;2023-04-06T05:50:57;5.45;;;1.27;;
74867;SDS011;63419;42.262;12.210;2023-04-06T05:53:30;5.63;;;1.60;;
74867;SDS011;63419;42.262;12.210;2023-04-06T05:58:34;4.57;;;1.52;;
74867;SDS011;63419;42.262;12.210;2023-04-06T06:01:03;3.72;;;1.13;;
74867;SDS011;63419;42.262;12.210;2023-04-06T06:03:31;4.88;;;1.20;;
74867;SDS011;63419;42.262;12.210;2023-04-06T06:06:03;5.15;;;1.02;;
74867;SDS011;63419;42.262;12.210;2023-04-06T06:08:33;6.97;;;1.30;;
74867;SDS011;63419;42.262;12.210;2023-04-06T06:11:01;7.80;;;1.50;;
74867;SDS011;63419;42.262;12.210;2023-04-06T06:13:30;5.82;;;1.67;;
74867;SDS011;63419;42.262;12.210;2023-04-06T06:16:00;4.78;;;1.50;;
74867;SDS011;63419;42.262;12.210;2023-04-06T06:18:31;6.32;;;1.55;;
74867;SDS011;63419;42.262;12.210;2023-04-06T06:21:01;5.60;;;1.30;;
74867;SDS011;63419;42.262;12.210;2023-04-06T06:23:32;6.43;;;1.63;;
74867;SDS011;63419;42.262;12.210;2023-04-06T06:26:00;4.55;;;1.40;;
74867;SDS011;63419;42.262;12.210;2023-04-06T06:28:28;3.22;;;0.88;;
74867;SDS011;63419;42.262;12.210;2023-04-06T06:31:00;6.25;;;1.52;;
74867;SDS011;63419;42.262;12.210;2023-04-06T06:33:28;6.47;;;1.58;;
74867;SDS011;63419;42.262;12.210;2023-04-06T06:35:56;5.43;;;1.52;;
74867;SDS011;63419;42.262;12.210;2023-04-06T06:38:26;6.30;;;1.58;;
74867;SDS011;63419;42.262;12.210;2023-04-06T06:40:57;5.47;;;1.35;;
74867;SDS011;63419;42.262;12.210;2023-04-06T06:43:26;5.30;;;1.35;;
74867;SDS011;63419;42.262;12.210;2023-04-06T06:45:54;4.22;;;1.17;;
74867;SDS011;63419;42.262;12.210;2023-04-06T06:48:34;5.47;;;1.92;;
74867;SDS011;63419;42.262;12.210;2023-04-06T06:51:15;4.68;;;1.63;;
74867;SDS011;63419;42.262;12.210;2023-04-06T06:53:47;7.45;;;1.63;;
74867;SDS011;63419;42.262;12.210;2023-04-06T06:56:20;6.05;;;1.45;;
74867;SDS011;63419;42.262;12.210;2023-04-06T06:58:50;4.93;;;1.50;;
74867;SDS011;63419;42.262;12.210;2023-04-06T07:01:18;4.72;;;1.60;;
74867;SDS011;63419;42.262;12.210;2023-04-06T07:06:14;4.97;;;1.27;;
74867;SDS011;63419;42.262;12.210;2023-04-06T07:08:43;5.93;;;1.73;;
74867;SDS011;63419;42.262;12.210;2023-04-06T07:11:14;5.53;;;1.77;;
74867;SDS011;63419;42.262;12.210;2023-04-06T07:13:48;5.72;;;1.33;;
74867;SDS011;63419;42.262;12.210;2023-04-06T07:16:15;5.78;;;1.38;;
74867;SDS011;63419;42.262;12.210;2023-04-06T07:18:48;6.63;;;2.58;;
74867;SDS011;63419;42.262;12.210;2023-04-06T07:21:18;4.30;;;1.13;;
74867;SDS011;63419;42.262;12.210;2023-04-06T07:23:51;7.05;;;1.80;;
74867;SDS011;63419;42.262;12.210;2023-04-06T07:26:20;4.20;;;1.10;;
74867;SDS011;63419;42.262;12.210;2023-04-06T07:28:53;4.80;;;1.27;;
74867;SDS011;63419;42.262;12.210;2023-04-06T07:31:23;5.80;;;1.60;;
74867;SDS011;63419;42.262;12.210;2023-04-06T07:33:55;6.03;;;2.03;;
74867;SDS011;63419;42.262;12.210;2023-04-06T07:36:25;5.78;;;1.90;;
74867;SDS011;63419;42.262;12.210;2023-04-06T07:38:53;5.72;;;1.60;;
74867;SDS011;63419;42.262;12.210;2023-04-06T07:41:20;8.57;;;2.45;;
74867;SDS011;63419;42.262;12.210;2023-04-06T07:43:54;7.80;;;2.80;;
74867;SDS011;63419;42.262;12.210;2023-04-06T07:46:25;8.65;;;2.05;;
74867;SDS011;63419;42.262;12.210;2023-04-06T07:48:52;6.53;;;1.67;;
74867;SDS011;63419;42.262;12.210;2023-04-06T07:51:22;6.00;;;1.73;;
74867;SDS011;63419;42.262;12.210;2023-04-06T07:53:53;6.50;;;2.00;;
74867;SDS011;63419;42.262;12.210;2023-04-06T07:56:21;5.45;;;1.35;;
74867;SDS011;63419;42.262;12.210;2023-04-06T07:59:00;6.10;;;1.67;;
74867;SDS011;63419;42.262;12.210;2023-04-06T08:01:31;5.32;;;1.48;;
74867;SDS011;63419;42.262;12.210;2023-04-06T08:04:03;5.53;;;1.20;;
74867;SDS011;63419;42.262;12.210;2023-04-06T08:06:30;6.07;;;1.52;;
74867;SDS011;63419;42.262;12.210;2023-04-06T08:09:01;5.25;;;1.58;;
74867;SDS011;63419;42.262;12.210;2023-04-06T08:11:32;6.82;;;1.92;;
74867;SDS011;63419;42.262;12.210;2023-04-06T08:14:01;7.55;;;1.92;;
74867;SDS011;63419;42.262;12.210;2023-04-06T08:16:28;5.45;;;1.50;;
74867;SDS011;63419;42.262;12.210;2023-04-06T08:18:59;6.72;;;1.88;;
74867;SDS011;63419;42.262;12.210;2023-04-06T08:21:26;7.43;;;2.08;;
74867;SDS011;63419;42.262;12.210;2023-04-06T08:26:27;5.95;;;1.67;;
74867;SDS011;63419;42.262;12.210;2023-04-06T08:28:58;6.90;;;1.83;;
74867;SDS011;63419;42.262;12.210;2023-04-06T08:31:30;10.00;;;2.65;;
74867;SDS011;63419;42.262;12.210;2023-04-06T08:33:58;8.43;;;2.13;;
74867;SDS011;63419;42.262;12.210;2023-04-06T08:36:29;6.85;;;1.75;;
74867;SDS011;63419;42.262;12.210;2023-04-06T08:39:00;5.68;;;1.45;;
74867;SDS011;63419;42.262;12.210;2023-04-06T08:41:31;6.00;;;1.85;;
74867;SDS011;63419;42.262;12.210;2023-04-06T08:44:10;6.03;;;1.80;;
74867;SDS011;63419;42.262;12.210;2023-04-06T08:46:38;5.03;;;1.30;;
74867;SDS011;63419;42.262;12.210;2023-04-06T08:49:10;7.40;;;2.10;;
74867;SDS011;63419;42.262;12.210;2023-04-06T08:51:40;7.60;;;1.88;;
74867;SDS011;63419;42.262;12.210;2023-04-06T08:54:12;9.02;;;2.20;;
74867;SDS011;63419;42.262;12.210;2023-04-06T08:56:47;5.40;;;1.48;;
74867;SDS011;63419;42.262;12.210;2023-04-06T08:59:18;6.32;;;1.70;;
74867;SDS011;63419;42.262;12.210;2023-04-06T09:01:46;5.72;;;1.40;;
74867;SDS011;63419;42.262;12.210;2023-04-06T09:04:14;4.50;;;1.20;;
74867;SDS011;63419;42.262;12.210;2023-04-06T09:06:46;4.55;;;1.23;;
74867;SDS011;63419;42.262;12.210;2023-04-06T09:09:14;5.18;;;1.50;;
74867;SDS011;63419;42.262;12.210;2023-04-06T09:11:49;5.57;;;1.08;;
74867;SDS011;63419;42.262;12.210;2023-04-06T09:14:39;5.57;;;1.55;;
74867;SDS011;63419;42.262;12.210;2023-04-06T09:17:19;7.65;;;1.50;;
74867;SDS011;63419;42.262;12.210;2023-04-06T09:19:53;6.93;;;1.65;;
74867;SDS011;63419;42.262;12.210;2023-04-06T09:22:24;4.97;;;1.35;;
74867;SDS011;63419;42.262;12.210;2023-04-06T09:25:01;5.03;;;1.38;;
74867;SDS011;63419;42.262;12.210;2023-04-06T09:27:33;5.47;;;2.00;;
74867;SDS011;63419;42.262;12.210;2023-04-06T09:32:46;5.38;;;1.25;;
74867;SDS011;63419;42.262;12.210;2023-04-06T09:35:23;7.18;;;1.67;;
74867;SDS011;63419;42.262;12.210;2023-04-06T09:37:53;5.90;;;1.67;;
74867;SDS011;63419;42.262;12.210;2023-04-06T09:40:23;7.07;;;1.65;;
74867;SDS011;63419;42.262;12.210;2023-04-06T09:42:52;4.68;;;1.30;;
74867;SDS011;63419;42.262;12.210;2023-04-06T09:45:24;5.03;;;1.48;;
74867;SDS011;63419;42.262;12.210;2023-04-06T09:47:56;7.28;;;1.92;;
74867;SDS011;63419;42.262;12.210;2023-04-06T09:50:24;5.03;;;1.73;;
74867;SDS011;63419;42.262;12.210;2023-04-06T09:52:59;6.38;;;1.90;;
74867;SDS011;63419;42.262;12.210;2023-04-06T09:58:09;5.97;;;1.90;;
74867;SDS011;63419;42.262;12.210;2023-04-06T10:00:51;5.72;;;1.42;;
74867;SDS011;63419;42.262;12.210;2023-04-06T10:03:45;6.38;;;2.20;;
74867;SDS011;63419;42.262;12.210;2023-04-06T10:06:24;5.47;;;1.70;;
74867;SDS011;63419;42.262;12.210;2023-04-06T10:09:17;5.25;;;1.95;;
74867;SDS011;63419;42.262;12.210;2023-04-06T10:12:05;7.30;;;2.20;;
74867;SDS011;63419;42.262;12.210;2023-04-06T10:14:38;8.10;;;3.10;;
74867;SDS011;63419;42.262;12.210;2023-04-06T10:17:07;5.05;;;1.73;;
74867;SDS011;63419;42.262;12.210;2023-04-06T10:19:53;6.45;;;1.75;;
74867;SDS011;63419;42.262;12.210;2023-04-06T10:22:39;5.50;;;1.80;;
74867;SDS011;63419;42.262;12.210;2023-04-06T10:25:28;6.35;;;1.90;;
74867;SDS011;63419;42.262;12.210;2023-04-06T10:28:06;4.85;;;1.67;;
74867;SDS011;63419;42.262;12.210;2023-04-06T10:30:42;7.20;;;1.90;;
74867;SDS011;63419;42.262;12.210;2023-04-06T10:33:14;6.10;;;1.80;;
74867;SDS011;63419;42.262;12.210;2023-04-06T10:35:53;6.65;;;2.20;;
74867;SDS011;63419;42.262;12.210;2023-04-06T10:38:34;5.93;;;1.70;;
74867;SDS011;63419;42.262;12.210;2023-04-06T10:41:11;5.10;;;1.30;;
74867;SDS011;63419;42.262;12.210;2023-04-06T10:43:42;4.88;;;1.60;;
74867;SDS011;63419;42.262;12.210;2023-04-06T10:46:28;5.22;;;1.58;;
74867;SDS011;63419;42.262;12.210;2023-04-06T10:49:09;7.80;;;1.60;;
74867;SDS011;63419;42.262;12.210;2023-04-06T10:51:39;5.05;;;1.55;;
74867;SDS011;63419;42.262;12.210;2023-04-06T10:54:10;4.65;;;1.50;;
74867;SDS011;63419;42.262;12.210;2023-04-06T10:56:40;6.60;;;1.30;;
74867;SDS011;63419;42.262;12.210;2023-04-06T10:59:18;3.95;;;1.17;;
74867;SDS011;63419;42.262;12.210;2023-04-06T11:01:55;3.90;;;1.25;;
74867;SDS011;63419;42.262;12.210;2023-04-06T11:04:25;5.15;;;1.33;;
74867;SDS011;63419;42.262;12.210;2023-04-06T11:07:03;4.60;;;1.58;;
74867;SDS011;63419;42.262;12.210;2023-04-06T11:09:36;6.35;;;1.40;;
74867;SDS011;63419;42.262;12.210;2023-04-06T11:12:07;6.57;;;1.67;;
74867;SDS011;63419;42.262;12.210;2023-04-06T11:15:03;6.18;;;1.70;;
74867;SDS011;63419;42.262;12.210;2023-04-06T11:17:34;5.78;;;1.70;;
74867;SDS011;63419;42.262;12.210;2023-04-06T11:20:09;6.70;;;1.60;;
74867;SDS011;63419;42.262;12.210;2023-04-06T11:22:51;6.60;;;1.50;;
74867;SDS011;63419;42.262;12.210;2023-04-06T11:25:35;6.00;;;1.60;;
74867;SDS011;63419;42.262;12.210;2023-04-06T11:28:17;6.18;;;1.77;;
74867;SDS011;63419;42.262;12.210;2023-04-06T11:30:46;5.60;;;1.75;;
74867;SDS011;63419;42.262;12.210;2023-04-06T11:33:21;5.10;;;1.58;;
74867;SDS011;63419;42.262;12.210;2023-04-06T11:35:49;4.80;;;1.70;;
74867;SDS011;63419;42.262;12.210;2023-04-06T11:38:18;5.07;;;1.65;;
74867;SDS011;63419;42.262;12.210;2023-04-06T11:40:53;5.72;;;1.38;;
74867;SDS011;63419;42.262;12.210;2023-04-06T11:43:29;5.65;;;2.40;;
74867;SDS011;63419;42.262;12.210;2023-04-06T11:46:05;5.05;;;1.48;;
74867;SDS011;63419;42.262;12.210;2023-04-06T11:48:43;5.38;;;2.45;;
74867;SDS011;63419;42.262;12.210;2023-04-06T11:51:12;4.82;;;1.25;;
74867;SDS011;63419;42.262;12.210;2023-04-06T11:53:53;5.85;;;1.92;;
74867;SDS011;63419;42.262;12.210;2023-04-06T11:56:27;5.38;;;1.45;;
74867;SDS011;63419;42.262;12.210;2023-04-06T11:58:57;5.60;;;1.63;;
74867;SDS011;63419;42.262;12.210;2023-04-06T12:01:26;5.80;;;1.80;;
74867;SDS011;63419;42.262;12.210;2023-04-06T12:03:58;5.72;;;1.70;;
74867;SDS011;63419;42.262;12.210;2023-04-06T12:06:25;5.55;;;1.33;;
74867;SDS011;63419;42.262;12.210;2023-04-06T12:08:58;8.85;;;3.20;;
74867;SDS011;63419;42.262;12.210;2023-04-06T12:11:26;5.15;;;1.30;;
74867;SDS011;63419;42.262;12.210;2023-04-06T12:13:53;9.38;;;2.33;;
74867;SDS011;63419;42.262;12.210;2023-04-06T12:16:31;5.07;;;1.40;;
74867;SDS011;63419;42.262;12.210;2023-04-06T12:18:58;4.13;;;1.10;;
74867;SDS011;63419;42.262;12.210;2023-04-06T12:21:26;5.13;;;1.20;;
74867;SDS011;63419;42.262;12.210;2023-04-06T12:24:00;3.97;;;1.35;;
74867;SDS011;63419;42.262;12.210;2023-04-06T12:26:30;4.60;;;1.33;;
74867;SDS011;63419;42.262;12.210;2023-04-06T12:28:58;5.40;;;1.38;;
74867;SDS011;63419;42.262;12.210;2023-04-06T12:31:40;5.20;;;1.52;;
74867;SDS011;63419;42.262;12.210;2023-04-06T12:34:09;4.95;;;1.25;;
74867;SDS011;63419;42.262;12.210;2023-04-06T12:36:45;3.30;;;0.98;;
74867;SDS011;63419;42.262;12.210;2023-04-06T12:39:19;5.80;;;1.20;;
74867;SDS011;63419;42.262;12.210;2023-04-06T12:41:48;4.68;;;1.40;;
74867;SDS011;63419;42.262;12.210;2023-04-06T12:44:15;3.75;;;0.93;;
74867;SDS011;63419;42.262;12.210;2023-04-06T12:46:43;3.70;;;1.05;;
74867;SDS011;63419;42.262;12.210;2023-04-06T12:49:11;4.10;;;1.38;;
74867;SDS011;63419;42.262;12.210;2023-04-06T12:51:41;6.53;;;1.10;;
74867;SDS011;63419;42.262;12.210;2023-04-06T12:54:10;3.55;;;0.90;;
74867;SDS011;63419;42.262;12.210;2023-04-06T12:56:38;4.55;;;1.05;;
74867;SDS011;63419;42.262;12.210;2023-04-06T12:59:05;4.93;;;1.38;;
74867;SDS011;63419;42.262;12.210;2023-04-06T13:01:33;4.10;;;1.13;;
74867;SDS011;63419;42.262;12.210;2023-04-06T13:04:01;5.68;;;1.30;;
74867;SDS011;63419;42.262;12.210;2023-04-06T13:06:31;4.40;;;1.48;;
74867;SDS011;63419;42.262;12.210;2023-04-06T13:08:58;4.38;;;1.27;;
74867;SDS011;63419;42.262;12.210;2023-04-06T13:11:33;6.78;;;1.40;;
74867;SDS011;63419;42.262;12.210;2023-04-06T13:14:00;4.00;;;1.10;;
74867;SDS011;63419;42.262;12.210;2023-04-06T13:16:27;4.75;;;1.17;;
74867;SDS011;63419;42.262;12.210;2023-04-06T13:18:59;5.50;;;1.40;;
74867;SDS011;63419;42.262;12.210;2023-04-06T13:21:33;5.82;;;1.45;;
74867;SDS011;63419;42.262;12.210;2023-04-06T13:24:00;4.82;;;1.50;;
74867;SDS011;63419;42.262;12.210;2023-04-06T13:26:33;4.50;;;1.60;;
74867;SDS011;63419;42.262;12.210;2023-04-06T13:29:03;4.18;;;1.20;;
74867;SDS011;63419;42.262;12.210;2023-04-06T13:31:31;4.40;;;1.10;;
74867;SDS011;63419;42.262;12.210;2023-04-06T13:34:08;5.22;;;1.42;;
74867;SDS011;63419;42.262;12.210;2023-04-06T13:36:37;5.75;;;1.30;;
74867;SDS011;63419;42.262;12.210;2023-04-06T13:39:05;3.95;;;1.20;;
74867;SDS011;63419;42.262;12.210;2023-04-06T13:41:33;4.40;;;1.30;;
74867;SDS011;63419;42.262;12.210;2023-04-06T13:44:03;3.83;;;1.23;;
74867;SDS011;63419;42.262;12.210;2023-04-06T13:46:31;3.50;;;1.02;;
74867;SDS011;63419;42.262;12.210;2023-04-06T13:49:02;3.70;;;0.93;;
74867;SDS011;63419;42.262;12.210;2023-04-06T13:51:32;4.10;;;1.02;;
74867;SDS011;63419;42.262;12.210;2023-04-06T13:54:00;5.50;;;1.83;;
74867;SDS011;63419;42.262;12.210;2023-04-06T13:58:58;5.10;;;1.70;;
74867;SDS011;63419;42.262;12.210;2023-04-06T14:01:31;4.13;;;1.15;;
74867;SDS011;63419;42.262;12.210;2023-04-06T14:04:01;3.88;;;1.00;;
74867;SDS011;63419;42.262;12.210;2023-04-06T14:06:28;5.05;;;2.10;;
74867;SDS011;63419;42.262;12.210;2023-04-06T14:08:57;4.55;;;1.58;;
74867;SDS011;63419;42.262;12.210;2023-04-06T14:11:26;3.58;;;0.90;;
74867;SDS011;63419;42.262;12.210;2023-04-06T14:13:54;5.05;;;1.40;;
74867;SDS011;63419;42.262;12.210;2023-04-06T14:16:23;4.90;;;1.40;;
74867;SDS011;63419;42.262;12.210;2023-04-06T14:18:51;4.22;;;1.50;;
74867;SDS011;63419;42.262;12.210;2023-04-06T14:21:18;7.53;;;1.33;;
74867;SDS011;63419;42.262;12.210;2023-04-06T14:23:47;3.58;;;0.70;;
74867;SDS011;63419;42.262;12.210;2023-04-06T14:26:15;6.18;;;1.27;;
74867;SDS011;63419;42.262;12.210;2023-04-06T14:28:49;4.15;;;1.45;;
74867;SDS011;63419;42.262;12.210;2023-04-06T14:31:17;6.40;;;1.33;;
74867;SDS011;63419;42.262;12.210;2023-04-06T14:33:45;5.65;;;1.90;;
74867;SDS011;63419;42.262;12.210;2023-04-06T14:36:23;7.57;;;2.15;;
74867;SDS011;63419;42.262;12.210;2023-04-06T14:38:53;4.25;;;1.35;;
74867;SDS011;63419;42.262;12.210;2023-04-06T14:41:24;4.10;;;1.30;;
74867;SDS011;63419;42.262;12.210;2023-04-06T14:43:54;4.68;;;1.15;;
74867;SDS011;63419;42.262;12.210;2023-04-06T14:46:21;4.32;;;1.15;;
74867;SDS011;63419;42.262;12.210;2023-04-06T14:48:56;5.35;;;1.92;;
74867;SDS011;63419;42.262;12.210;2023-04-06T14:51:25;4.50;;;1.52;;
74867;SDS011;63419;42.262;12.210;2023-04-06T14:53:55;5.00;;;1.10;;
74867;SDS011;63419;42.262;12.210;2023-04-06T14:56:46;6.97;;;2.10;;
74867;SDS011;63419;42.262;12.210;2023-04-06T14:59:18;4.60;;;1.10;;
74867;SDS011;63419;42.262;12.210;2023-04-06T15:01:52;11.25;;;4.35;;
74867;SDS011;63419;42.262;12.210;2023-04-06T15:04:24;7.38;;;1.17;;
74867;SDS011;63419;42.262;12.210;2023-04-06T15:06:55;5.35;;;1.35;;
74867;SDS011;63419;42.262;12.210;2023-04-06T15:11:53;5.40;;;1.83;;
74867;SDS011;63419;42.262;12.210;2023-04-06T15:14:28;7.28;;;2.60;;
74867;SDS011;63419;42.262;12.210;2023-04-06T15:17:02;4.28;;;1.42;;
74867;SDS011;63419;42.262;12.210;2023-04-06T15:19:33;4.88;;;1.33;;
74867;SDS011;63419;42.262;12.210;2023-04-06T15:22:12;4.32;;;1.10;;
74867;SDS011;63419;42.262;12.210;2023-04-06T15:24:39;9.30;;;3.15;;
74867;SDS011;63419;42.262;12.210;2023-04-06T15:27:07;7.45;;;3.00;;